Time;durP1;ratioP1;P1;durP2;ratioP2;P2;SDS_P1;SDS_P2;PMS_P1;PMS_P2;Temp;Humidity;BMP_temperature;BMP_pressure;BME280_temperature;BME280_humidity;BME280_pressure;Samples;Min_cycle;Max_cycle;Signal;HPM_P1;HPM_P2
2024/03/19 00:02:10;;;;;;;13.80;4.88;;;;;;;;;;5039863;28;20044;-77
2024/03/19 00:04:37;;;;;;;6.40;3.70;;;;;;;;;;5040663;28;20132;-76
2024/03/19 00:07:03;;;;;;;10.57;4.50;;;;;;;;;;5039225;28;20033;-76
2024/03/19 00:09:29;;;;;;;9.07;4.20;;;;;;;;;;5038628;28;20140;-77
2024/03/19 00:11:56;;;;;;;10.10;4.35;;;;;;;;;;5040654;28;20069;-76
2024/03/19 00:14:22;;;;;;;14.65;4.07;;;;;;;;;;5040552;28;20552;-76
2024/03/19 00:16:49;;;;;;;13.00;4.43;;;;;;;;;;5006809;28;20129;-76
2024/03/19 00:19:17;;;;;;;11.27;4.55;;;;;;;;;;5055726;28;20052;-76
2024/03/19 00:21:43;;;;;;;11.52;3.95;;;;;;;;;;5041878;28;20029;-77
2024/03/19 00:24:09;;;;;;;11.90;4.25;;;;;;;;;;5023967;28;20747;-76
2024/03/19 00:26:36;;;;;;;9.80;3.92;;;;;;;;;;5038909;28;20033;-77
2024/03/19 00:29:02;;;;;;;10.52;4.25;;;;;;;;;;5042919;28;20076;-77
2024/03/19 00:31:29;;;;;;;10.77;4.07;;;;;;;;;;5040640;28;20072;-77
2024/03/19 00:33:55;;;;;;;8.85;4.00;;;;;;;;;;5039359;28;20478;-76
2024/03/19 00:36:21;;;;;;;17.20;4.35;;;;;;;;;;5040000;28;20025;-76
2024/03/19 00:38:48;;;;;;;16.70;4.65;;;;;;;;;;5040794;28;21084;-76
2024/03/19 00:41:14;;;;;;;11.20;3.92;;;;;;;;;;5040481;28;20460;-77
2024/03/19 00:43:40;;;;;;;11.75;4.20;;;;;;;;;;5040840;28;20550;-77
2024/03/19 00:46:07;;;;;;;11.05;3.92;;;;;;;;;;5041804;28;20040;-77
2024/03/19 00:48:34;;;;;;;12.63;4.28;;;;;;;;;;5023563;28;20434;-76
2024/03/19 00:51:00;;;;;;;13.23;4.57;;;;;;;;;;5039786;28;20087;-77
2024/03/19 00:53:27;;;;;;;12.23;4.30;;;;;;;;;;5034973;28;20041;-77
2024/03/19 00:55:53;;;;;;;15.20;4.07;;;;;;;;;;5038052;28;20037;-77
2024/03/19 00:58:20;;;;;;;9.55;4.13;;;;;;;;;;5040430;28;20095;-77
2024/03/19 01:00:46;;;;;;;11.48;4.20;;;;;;;;;;5043129;28;20042;-77
2024/03/19 01:03:14;;;;;;;10.45;4.22;;;;;;;;;;5042577;28;20813;-77
2024/03/19 01:05:40;;;;;;;9.32;4.38;;;;;;;;;;5041958;28;20037;-76
2024/03/19 01:08:07;;;;;;;9.80;4.40;;;;;;;;;;5042254;28;20072;-77
2024/03/19 01:10:34;;;;;;;10.88;4.00;;;;;;;;;;5058146;28;20120;-77
2024/03/19 01:13:01;;;;;;;8.25;3.70;;;;;;;;;;5043304;28;20037;-75
2024/03/19 01:15:28;;;;;;;11.68;4.47;;;;;;;;;;5042463;28;20033;-76
2024/03/19 01:17:54;;;;;;;12.60;4.00;;;;;;;;;;5043845;28;20469;-77
2024/03/19 01:20:20;;;;;;;9.77;3.75;;;;;;;;;;5042580;28;20040;-76
2024/03/19 01:22:47;;;;;;;10.73;4.07;;;;;;;;;;5042386;28;20964;-77
2024/03/19 01:25:13;;;;;;;11.50;3.95;;;;;;;;;;5041260;28;20033;-77
2024/03/19 01:27:42;;;;;;;9.40;4.60;;;;;;;;;;5040632;28;20037;-77
2024/03/19 01:30:10;;;;;;;9.75;4.65;;;;;;;;;;5043424;28;20059;-76
2024/03/19 01:32:37;;;;;;;11.50;4.82;;;;;;;;;;5042476;28;20103;-76
2024/03/19 01:35:03;;;;;;;10.98;4.70;;;;;;;;;;5043755;28;20087;-76
2024/03/19 01:37:30;;;;;;;12.05;3.80;;;;;;;;;;5046111;28;20033;-76
2024/03/19 01:39:56;;;;;;;10.20;4.57;;;;;;;;;;5043603;28;20040;-76
2024/03/19 01:42:22;;;;;;;9.65;4.50;;;;;;;;;;5046677;28;20036;-76
2024/03/19 01:44:50;;;;;;;8.48;4.43;;;;;;;;;;5045911;28;20563;-76
2024/03/19 01:47:17;;;;;;;12.95;4.20;;;;;;;;;;5045218;28;20063;-76
2024/03/19 01:49:44;;;;;;;10.20;4.40;;;;;;;;;;5043280;28;20028;-76
2024/03/19 01:52:10;;;;;;;14.02;4.57;;;;;;;;;;5042345;28;20111;-76
2024/03/19 01:54:36;;;;;;;12.07;4.15;;;;;;;;;;5042963;28;20368;-76
2024/03/19 01:57:03;;;;;;;7.45;4.07;;;;;;;;;;5043784;28;20029;-76
2024/03/19 01:59:30;;;;;;;10.35;4.35;;;;;;;;;;5041527;28;20095;-75
2024/03/19 02:01:56;;;;;;;10.43;4.35;;;;;;;;;;5040044;28;20418;-75
2024/03/19 02:04:22;;;;;;;11.07;4.50;;;;;;;;;;5039650;28;20029;-76
2024/03/19 02:06:49;;;;;;;7.68;3.90;;;;;;;;;;5041661;28;20037;-76
2024/03/19 02:09:15;;;;;;;14.45;4.18;;;;;;;;;;5040379;28;20084;-76
2024/03/19 02:11:41;;;;;;;9.75;4.50;;;;;;;;;;5042557;28;20583;-76
2024/03/19 02:14:08;;;;;;;9.52;4.57;;;;;;;;;;5038140;28;20099;-76
2024/03/19 02:16:35;;;;;;;10.35;4.45;;;;;;;;;;5043387;28;20084;-76
2024/03/19 02:19:04;;;;;;;10.20;4.35;;;;;;;;;;5041579;28;20450;-75
2024/03/19 02:21:30;;;;;;;9.07;4.53;;;;;;;;;;5040390;28;20039;-75
2024/03/19 02:23:57;;;;;;;7.30;4.18;;;;;;;;;;5041464;28;20079;-76
2024/03/19 02:26:27;;;;;;;8.10;4.10;;;;;;;;;;5041940;28;20128;-76
2024/03/19 02:28:56;;;;;;;11.27;4.90;;;;;;;;;;5040789;28;20079;-75
2024/03/19 02:31:24;;;;;;;6.45;4.00;;;;;;;;;;5042349;28;20454;-76
2024/03/19 02:33:51;;;;;;;9.57;4.35;;;;;;;;;;5037806;28;20033;-76
2024/03/19 02:36:18;;;;;;;6.75;4.55;;;;;;;;;;5041165;28;20055;-76
2024/03/19 02:38:44;;;;;;;8.43;4.70;;;;;;;;;;5040889;28;20040;-76
2024/03/19 02:41:11;;;;;;;9.07;4.82;;;;;;;;;;5039485;28;20052;-75
2024/03/19 02:43:37;;;;;;;8.65;4.57;;;;;;;;;;5041255;28;20034;-75
2024/03/19 02:46:03;;;;;;;8.63;4.10;;;;;;;;;;5040494;28;20033;-76
2024/03/19 02:48:30;;;;;;;8.65;4.43;;;;;;;;;;5023154;28;20179;-75
2024/03/19 02:50:56;;;;;;;9.98;4.57;;;;;;;;;;5043005;28;20021;-76
2024/03/19 02:53:23;;;;;;;11.90;4.38;;;;;;;;;;5041295;28;20029;-75
2024/03/19 02:55:50;;;;;;;11.35;4.78;;;;;;;;;;5041043;28;20507;-75
2024/03/19 02:58:17;;;;;;;11.40;4.80;;;;;;;;;;5041178;28;20033;-75
2024/03/19 03:00:43;;;;;;;10.55;4.40;;;;;;;;;;5038763;28;20037;-75
2024/03/19 03:03:09;;;;;;;8.10;4.43;;;;;;;;;;5023424;28;20124;-75
2024/03/19 03:05:36;;;;;;;10.38;4.43;;;;;;;;;;5041295;28;20620;-76
2024/03/19 03:08:02;;;;;;;10.18;4.80;;;;;;;;;;5044303;28;20062;-76
2024/03/19 03:10:29;;;;;;;8.18;4.10;;;;;;;;;;5042438;28;20171;-75
2024/03/19 03:12:55;;;;;;;7.80;4.55;;;;;;;;;;5042946;28;20037;-76
2024/03/19 03:15:22;;;;;;;7.47;4.07;;;;;;;;;;5040609;28;20029;-76
2024/03/19 03:17:49;;;;;;;6.45;3.67;;;;;;;;;;5042891;28;20147;-76
2024/03/19 03:20:15;;;;;;;8.50;4.40;;;;;;;;;;5044235;28;20120;-76
2024/03/19 03:22:42;;;;;;;9.32;4.38;;;;;;;;;;5040443;28;20036;-77
2024/03/19 03:25:11;;;;;;;8.10;4.15;;;;;;;;;;5041629;28;20033;-77
2024/03/19 03:27:40;;;;;;;7.78;4.30;;;;;;;;;;5039283;28;20080;-77
2024/03/19 03:30:10;;;;;;;10.48;4.18;;;;;;;;;;5042320;28;20033;-77
2024/03/19 03:32:37;;;;;;;8.30;4.15;;;;;;;;;;5042227;28;20025;-75
2024/03/19 03:35:04;;;;;;;9.02;4.72;;;;;;;;;;5040348;28;20349;-75
2024/03/19 03:37:30;;;;;;;7.03;4.47;;;;;;;;;;5040926;28;20037;-75
2024/03/19 03:39:57;;;;;;;7.53;4.57;;;;;;;;;;5042645;28;20441;-75
2024/03/19 03:42:26;;;;;;;10.45;4.30;;;;;;;;;;5039039;28;20064;-75
2024/03/19 03:44:53;;;;;;;6.63;4.32;;;;;;;;;;5042137;28;20063;-75
2024/03/19 03:47:19;;;;;;;9.75;4.25;;;;;;;;;;5038356;28;20038;-75
2024/03/19 03:49:47;;;;;;;11.27;4.90;;;;;;;;;;5040816;28;20033;-75
2024/03/19 03:52:13;;;;;;;8.63;4.30;;;;;;;;;;5040742;28;20083;-75
2024/03/19 03:54:40;;;;;;;8.95;4.40;;;;;;;;;;5042893;28;20090;-75
2024/03/19 03:57:06;;;;;;;9.63;4.80;;;;;;;;;;5041051;28;20055;-76
2024/03/19 03:59:32;;;;;;;9.77;4.43;;;;;;;;;;5037247;28;20056;-76
2024/03/19 04:01:59;;;;;;;11.27;4.88;;;;;;;;;;5023595;28;20037;-75
2024/03/19 04:04:25;;;;;;;9.60;4.80;;;;;;;;;;5039212;28;20029;-75
2024/03/19 04:06:51;;;;;;;11.48;5.00;;;;;;;;;;5039563;28;20576;-76
2024/03/19 04:09:17;;;;;;;7.22;4.60;;;;;;;;;;5041062;28;20464;-76
2024/03/19 04:11:44;;;;;;;8.07;4.63;;;;;;;;;;5036905;28;20033;-77
2024/03/19 04:14:10;;;;;;;7.97;4.10;;;;;;;;;;5038898;28;20043;-76
2024/03/19 04:16:36;;;;;;;8.15;4.70;;;;;;;;;;5038349;28;20033;-77
2024/03/19 04:19:03;;;;;;;7.65;4.63;;;;;;;;;;5040105;28;20099;-76
2024/03/19 04:21:29;;;;;;;5.70;3.92;;;;;;;;;;5039544;28;20108;-76
2024/03/19 04:23:56;;;;;;;7.32;4.90;;;;;;;;;;5037339;28;20409;-76
2024/03/19 04:26:22;;;;;;;10.93;5.05;;;;;;;;;;5035934;28;20029;-76
2024/03/19 04:28:49;;;;;;;7.95;4.30;;;;;;;;;;5037061;28;20613;-75
2024/03/19 04:31:15;;;;;;;8.27;4.53;;;;;;;;;;5039267;28;20127;-76
2024/03/19 04:33:42;;;;;;;8.73;5.00;;;;;;;;;;5038495;28;20082;-79
2024/03/19 04:36:08;;;;;;;9.85;4.85;;;;;;;;;;5037665;28;20037;-81
2024/03/19 04:38:35;;;;;;;9.68;5.22;;;;;;;;;;5036219;28;20040;-82
2024/03/19 04:41:01;;;;;;;7.93;4.85;;;;;;;;;;5037210;28;20768;-80
2024/03/19 04:43:28;;;;;;;9.27;4.93;;;;;;;;;;5035824;28;20087;-75
2024/03/19 04:45:54;;;;;;;10.85;4.82;;;;;;;;;;5036455;28;20054;-78
2024/03/19 04:48:20;;;;;;;6.05;4.25;;;;;;;;;;5037372;28;20589;-78
2024/03/19 04:50:46;;;;;;;13.18;5.20;;;;;;;;;;5037518;28;20035;-77
2024/03/19 04:53:13;;;;;;;9.00;4.65;;;;;;;;;;5037272;28;20527;-76
2024/03/19 04:55:39;;;;;;;9.50;5.15;;;;;;;;;;5035057;28;20037;-79
2024/03/19 04:58:05;;;;;;;14.55;5.78;;;;;;;;;;5038452;28;20033;-78
2024/03/19 05:00:32;;;;;;;11.77;5.93;;;;;;;;;;5019305;28;20581;-78
2024/03/19 05:02:58;;;;;;;15.00;5.30;;;;;;;;;;5036964;28;20036;-77
2024/03/19 05:05:24;;;;;;;10.00;5.40;;;;;;;;;;5036275;28;20037;-77
2024/03/19 05:07:51;;;;;;;13.93;5.15;;;;;;;;;;5036308;28;20083;-77
2024/03/19 05:10:17;;;;;;;9.57;5.07;;;;;;;;;;5045285;28;20057;-78
2024/03/19 05:12:44;;;;;;;14.57;6.40;;;;;;;;;;5041292;28;20029;-77
2024/03/19 05:15:10;;;;;;;15.30;5.68;;;;;;;;;;5044257;28;20035;-77
2024/03/19 05:17:37;;;;;;;10.20;5.65;;;;;;;;;;5042694;28;20147;-77
2024/03/19 05:20:05;;;;;;;13.85;6.45;;;;;;;;;;5043188;28;20037;-77
2024/03/19 05:22:31;;;;;;;12.98;5.82;;;;;;;;;;5042792;28;20056;-77
2024/03/19 05:24:58;;;;;;;12.80;6.20;;;;;;;;;;5044122;28;20545;-77
2024/03/19 05:27:24;;;;;;;9.55;5.75;;;;;;;;;;5043220;28;20503;-77
2024/03/19 05:29:50;;;;;;;11.18;5.80;;;;;;;;;;5045644;28;20037;-78
2024/03/19 05:32:17;;;;;;;13.43;5.80;;;;;;;;;;5046777;28;20045;-77
2024/03/19 05:34:44;;;;;;;11.27;5.93;;;;;;;;;;5046249;28;20451;-77
2024/03/19 05:37:10;;;;;;;12.75;5.60;;;;;;;;;;5044867;28;20060;-77
2024/03/19 05:39:36;;;;;;;9.65;5.53;;;;;;;;;;5028166;28;20068;-77
2024/03/19 05:42:02;;;;;;;11.88;5.45;;;;;;;;;;5047325;28;20156;-79
2024/03/19 05:44:29;;;;;;;11.45;5.13;;;;;;;;;;5045693;28;20044;-76
2024/03/19 05:46:55;;;;;;;8.23;4.60;;;;;;;;;;5061894;28;20076;-79
2024/03/19 05:49:21;;;;;;;13.38;5.32;;;;;;;;;;5046888;28;20044;-79
2024/03/19 05:51:48;;;;;;;12.60;5.60;;;;;;;;;;5026148;28;20079;-79
2024/03/19 05:54:14;;;;;;;9.77;6.05;;;;;;;;;;5047064;28;20029;-79
2024/03/19 05:56:40;;;;;;;13.88;5.65;;;;;;;;;;5045416;28;20033;-78
2024/03/19 05:59:07;;;;;;;9.98;5.97;;;;;;;;;;5044213;28;20091;-79
2024/03/19 06:01:33;;;;;;;10.30;5.53;;;;;;;;;;5046244;28;20029;-80
2024/03/19 06:04:01;;;;;;;10.88;5.88;;;;;;;;;;5044409;28;20040;-81
2024/03/19 06:06:28;;;;;;;13.35;5.90;;;;;;;;;;5044520;28;20035;-81
2024/03/19 06:08:55;;;;;;;9.77;6.43;;;;;;;;;;5044856;28;20086;-80
2024/03/19 06:11:21;;;;;;;10.82;5.65;;;;;;;;;;5044107;28;20033;-80
2024/03/19 06:13:48;;;;;;;13.52;6.38;;;;;;;;;;5043910;28;20033;-80
2024/03/19 06:16:15;;;;;;;11.32;6.10;;;;;;;;;;5045341;28;20028;-80
2024/03/19 06:18:41;;;;;;;14.85;6.25;;;;;;;;;;5043380;28;20071;-80
2024/03/19 06:21:07;;;;;;;10.65;5.93;;;;;;;;;;5044819;28;20094;-80
2024/03/19 06:23:34;;;;;;;11.88;6.18;;;;;;;;;;5045262;28;20031;-79
2024/03/19 06:26:00;;;;;;;14.43;6.95;;;;;;;;;;5045498;28;20048;-79
2024/03/19 06:28:26;;;;;;;16.73;6.22;;;;;;;;;;5043162;28;20041;-79
2024/03/19 06:30:55;;;;;;;13.30;6.30;;;;;;;;;;5036047;28;20044;-78
2024/03/19 06:33:22;;;;;;;13.43;6.25;;;;;;;;;;5038241;28;20041;-77
2024/03/19 06:35:52;;;;;;;11.68;5.85;;;;;;;;;;5041548;28;20052;-77
2024/03/19 06:38:18;;;;;;;13.35;6.15;;;;;;;;;;5038486;28;20033;-78
2024/03/19 06:40:45;;;;;;;11.82;6.03;;;;;;;;;;5040647;28;20427;-78
2024/03/19 06:43:11;;;;;;;11.63;6.15;;;;;;;;;;5054676;28;20037;-78
2024/03/19 06:45:38;;;;;;;11.70;5.90;;;;;;;;;;5040930;28;20033;-80
2024/03/19 06:48:24;;;;;;;10.35;5.70;;;;;;;;;;5039876;28;20033;-79
2024/03/19 06:50:51;;;;;;;11.15;6.40;;;;;;;;;;5041015;28;20016;-81
2024/03/19 06:53:17;;;;;;;11.10;5.40;;;;;;;;;;5040004;28;20052;-79
2024/03/19 06:55:43;;;;;;;7.10;4.80;;;;;;;;;;5041275;28;20040;-79
2024/03/19 06:58:09;;;;;;;9.70;5.35;;;;;;;;;;5041965;28;20072;-79
2024/03/19 07:00:36;;;;;;;8.93;4.93;;;;;;;;;;5039507;28;20072;-79
2024/03/19 07:03:03;;;;;;;8.65;5.68;;;;;;;;;;5042968;28;20713;-79
2024/03/19 07:05:30;;;;;;;7.75;5.03;;;;;;;;;;5038984;28;20033;-79
2024/03/19 07:07:58;;;;;;;11.23;5.30;;;;;;;;;;5039051;28;20059;-77
2024/03/19 07:10:24;;;;;;;9.75;4.90;;;;;;;;;;5038941;28;20819;-77
2024/03/19 07:12:51;;;;;;;11.73;5.10;;;;;;;;;;5039756;28;20581;-79
2024/03/19 07:15:18;;;;;;;10.70;5.50;;;;;;;;;;5040211;28;20036;-80
2024/03/19 07:17:51;;;;;;;7.95;5.15;;;;;;;;;;5036270;28;20051;-79
2024/03/19 07:20:18;;;;;;;12.18;6.00;;;;;;;;;;5036764;28;20052;-79
2024/03/19 07:22:46;;;;;;;10.10;5.72;;;;;;;;;;5038789;28;20110;-79
2024/03/19 07:25:13;;;;;;;17.27;6.25;;;;;;;;;;5034896;28;20033;-78
2024/03/19 07:27:41;;;;;;;9.93;5.10;;;;;;;;;;5034325;28;20198;-78
2024/03/19 07:30:09;;;;;;;7.32;4.93;;;;;;;;;;5001252;28;20028;-78
2024/03/19 07:32:35;;;;;;;11.40;6.00;;;;;;;;;;5039141;28;20599;-77
2024/03/19 07:35:03;;;;;;;9.80;5.45;;;;;;;;;;5037757;28;20033;-77
2024/03/19 07:37:29;;;;;;;7.97;4.90;;;;;;;;;;5038882;28;20099;-78
2024/03/19 07:39:58;;;;;;;8.93;5.18;;;;;;;;;;5039766;28;20033;-78
2024/03/19 07:42:25;;;;;;;7.65;4.97;;;;;;;;;;5036394;28;20060;-79
2024/03/19 07:44:52;;;;;;;10.75;5.00;;;;;;;;;;5038110;28;20128;-79
2024/03/19 07:47:18;;;;;;;6.57;4.70;;;;;;;;;;5037983;28;20072;-77
2024/03/19 07:49:48;;;;;;;11.25;5.07;;;;;;;;;;5020230;28;20375;-77
2024/03/19 07:52:14;;;;;;;7.72;4.68;;;;;;;;;;5036954;28;20065;-77
2024/03/19 07:54:41;;;;;;;9.35;5.05;;;;;;;;;;5037344;28;20550;-79
2024/03/19 07:57:07;;;;;;;8.93;5.30;;;;;;;;;;5038414;28;20079;-81
2024/03/19 07:59:35;;;;;;;20.63;5.57;;;;;;;;;;5038486;28;20041;-81
2024/03/19 08:02:02;;;;;;;12.00;5.25;;;;;;;;;;5040516;28;20033;-81
2024/03/19 08:04:28;;;;;;;11.48;5.43;;;;;;;;;;5036140;28;20025;-80
2024/03/19 08:06:55;;;;;;;8.70;4.80;;;;;;;;;;5036931;28;20508;-79
2024/03/19 08:09:22;;;;;;;7.55;4.75;;;;;;;;;;5037117;28;20052;-76
2024/03/19 08:11:48;;;;;;;7.22;5.10;;;;;;;;;;5039364;28;20384;-76
2024/03/19 08:14:18;;;;;;;10.02;5.30;;;;;;;;;;5037039;28;20041;-76
2024/03/19 08:16:44;;;;;;;8.23;4.50;;;;;;;;;;5031527;28;20568;-78
2024/03/19 08:19:10;;;;;;;9.40;5.07;;;;;;;;;;5018501;28;20049;-77
2024/03/19 08:21:37;;;;;;;10.73;5.07;;;;;;;;;;5032943;28;20025;-77
2024/03/19 08:24:04;;;;;;;8.52;5.32;;;;;;;;;;5031976;28;20033;-76
2024/03/19 08:26:33;;;;;;;9.82;4.75;;;;;;;;;;5035247;28;20037;-78
2024/03/19 08:29:01;;;;;;;9.10;5.20;;;;;;;;;;5034463;28;20775;-76
2024/03/19 08:31:28;;;;;;;10.07;5.80;;;;;;;;;;5032295;28;20084;-77
2024/03/19 08:33:54;;;;;;;8.85;5.10;;;;;;;;;;5035417;28;20041;-77
2024/03/19 08:36:20;;;;;;;9.25;5.70;;;;;;;;;;5034399;28;20033;-77
2024/03/19 08:38:47;;;;;;;8.82;4.88;;;;;;;;;;5033549;28;20660;-77
2024/03/19 08:41:13;;;;;;;6.68;4.88;;;;;;;;;;5034206;28;20033;-77
2024/03/19 08:43:45;;;;;;;8.65;5.10;;;;;;;;;;5034110;28;20056;-77
2024/03/19 08:46:12;;;;;;;8.35;5.35;;;;;;;;;;5036703;28;20033;-77
2024/03/19 08:48:38;;;;;;;7.47;5.35;;;;;;;;;;5036144;28;20075;-77
2024/03/19 08:51:05;;;;;;;7.50;5.20;;;;;;;;;;5036698;28;20056;-77
2024/03/19 08:53:31;;;;;;;9.73;5.63;;;;;;;;;;5033705;28;20037;-77
2024/03/19 08:55:59;;;;;;;8.32;4.68;;;;;;;;;;5035378;28;20127;-77
2024/03/19 08:58:26;;;;;;;12.05;4.70;;;;;;;;;;5034245;28;20064;-77
2024/03/19 09:00:52;;;;;;;7.78;4.88;;;;;;;;;;5031672;28;20037;-77
2024/03/19 09:03:18;;;;;;;9.23;4.88;;;;;;;;;;5034633;28;20119;-77
2024/03/19 09:05:45;;;;;;;9.02;5.22;;;;;;;;;;5033057;28;20052;-76
2024/03/19 09:08:12;;;;;;;7.18;4.50;;;;;;;;;;5034710;28;20364;-76
2024/03/19 09:10:38;;;;;;;8.57;4.47;;;;;;;;;;5032082;28;20078;-76
2024/03/19 09:13:05;;;;;;;9.63;4.75;;;;;;;;;;5035975;28;20043;-76
2024/03/19 09:15:31;;;;;;;8.90;4.65;;;;;;;;;;5034249;28;20041;-76
2024/03/19 09:17:57;;;;;;;6.95;4.40;;;;;;;;;;5035796;28;20131;-77
2024/03/19 09:20:23;;;;;;;6.68;4.70;;;;;;;;;;5035987;28;20133;-75
2024/03/19 09:22:50;;;;;;;10.70;4.70;;;;;;;;;;5034376;28;20049;-79
2024/03/19 09:25:16;;;;;;;5.47;4.18;;;;;;;;;;5033139;28;20044;-79
2024/03/19 09:27:43;;;;;;;5.63;4.13;;;;;;;;;;5031335;28;20094;-77
2024/03/19 09:30:10;;;;;;;5.75;4.45;;;;;;;;;;5033928;28;20039;-79
2024/03/19 09:32:37;;;;;;;6.85;4.75;;;;;;;;;;5018979;28;20067;-78
2024/03/19 09:35:04;;;;;;;6.78;4.25;;;;;;;;;;5035498;28;20456;-76
2024/03/19 09:37:31;;;;;;;6.05;4.15;;;;;;;;;;5034838;28;20788;-75
2024/03/19 09:39:57;;;;;;;6.35;4.30;;;;;;;;;;5035640;28;20043;-77
2024/03/19 09:42:25;;;;;;;9.20;4.05;;;;;;;;;;5034619;28;20159;-77
2024/03/19 09:44:51;;;;;;;10.07;4.32;;;;;;;;;;5033607;28;20034;-78
2024/03/19 09:47:20;;;;;;;5.63;4.28;;;;;;;;;;5038281;28;20396;-78
2024/03/19 09:49:46;;;;;;;5.85;4.10;;;;;;;;;;5036704;28;20040;-77
2024/03/19 09:52:16;;;;;;;5.88;4.00;;;;;;;;;;5022426;28;20036;-79
2024/03/19 09:54:43;;;;;;;6.38;3.97;;;;;;;;;;5035304;28;20033;-78
2024/03/19 09:57:17;;;;;;;5.45;3.55;;;;;;;;;;5042326;28;20035;-79
2024/03/19 09:59:45;;;;;;;6.18;3.80;;;;;;;;;;5039772;28;20636;-77
2024/03/19 10:02:30;;;;;;;5.47;4.10;;;;;;;;;;5040319;28;20504;-79
2024/03/19 10:04:57;;;;;;;4.82;4.03;;;;;;;;;;5040109;28;20041;-78
2024/03/19 10:07:24;;;;;;;7.28;4.05;;;;;;;;;;5037601;28;20040;-78
2024/03/19 10:09:51;;;;;;;5.95;4.40;;;;;;;;;;5056746;28;20033;-78
2024/03/19 10:12:17;;;;;;;6.82;4.05;;;;;;;;;;5040575;28;20536;-79
2024/03/19 10:14:44;;;;;;;5.75;4.10;;;;;;;;;;5041063;28;20108;-79
2024/03/19 10:17:14;;;;;;;6.47;3.90;;;;;;;;;;5040971;28;20044;-79
2024/03/19 10:19:40;;;;;;;7.05;4.30;;;;;;;;;;5039666;28;20049;-80
2024/03/19 10:22:12;;;;;;;7.22;4.43;;;;;;;;;;5040639;28;20026;-78
2024/03/19 10:24:38;;;;;;;5.13;3.97;;;;;;;;;;5036291;28;20035;-79
2024/03/19 10:27:11;;;;;;;7.38;4.15;;;;;;;;;;5040840;28;20030;-78
2024/03/19 10:29:37;;;;;;;4.47;3.75;;;;;;;;;;5043472;28;20088;-79
2024/03/19 10:32:08;;;;;;;5.55;4.03;;;;;;;;;;5041070;28;20476;-80
2024/03/19 10:34:35;;;;;;;7.38;4.40;;;;;;;;;;5044584;28;20028;-79
2024/03/19 10:37:02;;;;;;;5.60;4.35;;;;;;;;;;5028090;28;20037;-78
2024/03/19 10:39:28;;;;;;;6.55;4.32;;;;;;;;;;5040142;28;20025;-78
2024/03/19 10:41:56;;;;;;;6.47;4.38;;;;;;;;;;5040926;28;20021;-78
2024/03/19 10:44:23;;;;;;;6.03;4.43;;;;;;;;;;5043072;28;20025;-79
2024/03/19 10:46:50;;;;;;;6.82;3.97;;;;;;;;;;5043098;28;20033;-78
2024/03/19 10:49:17;;;;;;;6.15;4.15;;;;;;;;;;5044383;28;20067;-79
2024/03/19 10:51:52;;;;;;;8.70;4.63;;;;;;;;;;5042328;28;20037;-78
2024/03/19 10:54:20;;;;;;;4.75;3.90;;;;;;;;;;5038873;28;20036;-78
2024/03/19 10:56:47;;;;;;;6.25;3.80;;;;;;;;;;5042871;28;20087;-78
2024/03/19 10:59:14;;;;;;;5.95;4.10;;;;;;;;;;5040197;28;20037;-78
2024/03/19 11:01:46;;;;;;;6.07;4.18;;;;;;;;;;5042935;28;20091;-78
2024/03/19 11:04:15;;;;;;;5.72;4.20;;;;;;;;;;5043104;28;20148;-79
2024/03/19 11:06:42;;;;;;;5.55;4.00;;;;;;;;;;5041502;28;20041;-78
2024/03/19 11:09:22;;;;;;;7.07;4.75;;;;;;;;;;5043556;28;20041;-78
2024/03/19 11:11:51;;;;;;;7.63;4.35;;;;;;;;;;5042134;28;20069;-77
2024/03/19 11:14:18;;;;;;;7.30;4.10;;;;;;;;;;5042368;28;20075;-78
2024/03/19 11:16:45;;;;;;;4.78;3.70;;;;;;;;;;5042213;28;20041;-78
2024/03/19 11:19:19;;;;;;;5.53;3.92;;;;;;;;;;5057843;28;20171;-78
2024/03/19 11:21:45;;;;;;;9.10;4.40;;;;;;;;;;5041238;28;20582;-78
2024/03/19 11:24:21;;;;;;;6.82;4.22;;;;;;;;;;5043517;28;20426;-78
2024/03/19 11:26:48;;;;;;;7.13;3.58;;;;;;;;;;5042146;28;20092;-78
2024/03/19 11:29:15;;;;;;;7.45;4.18;;;;;;;;;;5042423;28;20095;-78
2024/03/19 11:31:45;;;;;;;7.75;4.28;;;;;;;;;;5041263;28;20121;-79
2024/03/19 11:34:14;;;;;;;8.07;3.63;;;;;;;;;;5040556;28;20041;-79
2024/03/19 11:36:46;;;;;;;8.50;4.28;;;;;;;;;;5041523;28;20126;-79
2024/03/19 11:39:12;;;;;;;6.35;3.97;;;;;;;;;;5043211;28;20025;-79
2024/03/19 11:41:39;;;;;;;6.10;3.85;;;;;;;;;;5042479;28;20129;-78
2024/03/19 11:44:06;;;;;;;6.30;4.10;;;;;;;;;;5041115;28;20037;-78
2024/03/19 11:46:32;;;;;;;8.48;4.00;;;;;;;;;;5042568;28;20037;-78
2024/03/19 11:48:59;;;;;;;6.22;3.65;;;;;;;;;;5041344;28;20037;-77
2024/03/19 11:51:25;;;;;;;5.15;3.65;;;;;;;;;;5042455;28;20037;-78
2024/03/19 11:54:00;;;;;;;4.55;3.70;;;;;;;;;;5042746;28;20037;-78
2024/03/19 11:56:27;;;;;;;8.10;3.60;;;;;;;;;;5044528;28;20115;-79
2024/03/19 11:58:54;;;;;;;7.50;3.97;;;;;;;;;;5042889;28;20032;-78
2024/03/19 12:01:22;;;;;;;6.72;3.70;;;;;;;;;;5044443;28;20171;-80
2024/03/19 12:03:48;;;;;;;5.53;3.67;;;;;;;;;;5041711;28;20226;-78
2024/03/19 12:06:16;;;;;;;7.85;3.88;;;;;;;;;;5042818;28;20033;-77
2024/03/19 12:08:43;;;;;;;6.38;3.50;;;;;;;;;;5042123;28;20037;-78
2024/03/19 12:11:11;;;;;;;6.40;3.65;;;;;;;;;;5041329;28;20048;-78
2024/03/19 12:13:37;;;;;;;8.98;3.70;;;;;;;;;;5043060;28;20034;-79
2024/03/19 12:16:04;;;;;;;5.80;3.72;;;;;;;;;;5041950;28;20078;-79
2024/03/19 12:18:31;;;;;;;7.38;4.28;;;;;;;;;;5058371;28;20052;-77
2024/03/19 12:20:57;;;;;;;6.55;3.90;;;;;;;;;;5042290;28;20025;-78
2024/03/19 12:23:23;;;;;;;5.75;3.78;;;;;;;;;;5025400;28;20078;-78
2024/03/19 12:25:50;;;;;;;10.18;3.75;;;;;;;;;;5042420;28;20197;-77
2024/03/19 12:28:17;;;;;;;6.10;3.60;;;;;;;;;;5044235;28;20033;-77
2024/03/19 12:30:43;;;;;;;7.75;3.70;;;;;;;;;;5043233;28;20045;-77
2024/03/19 12:33:20;;;;;;;7.72;3.65;;;;;;;;;;5043067;28;20036;-78
2024/03/19 12:35:49;;;;;;;7.75;3.92;;;;;;;;;;5042660;28;20045;-79
2024/03/19 12:38:15;;;;;;;7.10;3.78;;;;;;;;;;5043220;28;20064;-77
2024/03/19 12:40:42;;;;;;;9.32;3.95;;;;;;;;;;5044491;28;20032;-78
2024/03/19 12:43:09;;;;;;;6.13;3.75;;;;;;;;;;5041803;28;20033;-78
2024/03/19 12:45:35;;;;;;;6.47;3.88;;;;;;;;;;5042389;28;20017;-77
2024/03/19 12:48:02;;;;;;;9.25;4.05;;;;;;;;;;5043055;28;20460;-78
2024/03/19 12:50:28;;;;;;;6.30;3.80;;;;;;;;;;5040262;28;20369;-79
2024/03/19 12:52:54;;;;;;;8.32;4.00;;;;;;;;;;5042587;28;20033;-79
2024/03/19 12:55:21;;;;;;;8.73;3.78;;;;;;;;;;5043034;28;20041;-79
2024/03/19 12:57:47;;;;;;;7.57;4.03;;;;;;;;;;5044074;28;20084;-77
2024/03/19 13:00:17;;;;;;;8.40;3.47;;;;;;;;;;5023538;28;20124;-77
2024/03/19 13:02:51;;;;;;;8.15;4.00;;;;;;;;;;5039246;28;20064;-78
2024/03/19 13:05:17;;;;;;;5.90;3.50;;;;;;;;;;5039822;28;20668;-78
2024/03/19 13:07:43;;;;;;;10.50;4.00;;;;;;;;;;5039869;28;20060;-79
2024/03/19 13:10:10;;;;;;;6.45;3.28;;;;;;;;;;5007119;28;20510;-81
2024/03/19 13:12:37;;;;;;;7.57;3.13;;;;;;;;;;5040816;28;20030;-80
2024/03/19 13:15:03;;;;;;;8.10;3.13;;;;;;;;;;5040472;28;20398;-83
2024/03/19 13:17:30;;;;;;;5.45;3.17;;;;;;;;;;5043057;28;20048;-81
2024/03/19 13:19:56;;;;;;;7.85;3.03;;;;;;;;;;5043121;28;20049;-78
2024/03/19 13:22:26;;;;;;;9.27;3.33;;;;;;;;;;5043036;28;20035;-80
2024/03/19 13:24:52;;;;;;;4.80;2.95;;;;;;;;;;5041575;28;20398;-80
2024/03/19 13:27:19;;;;;;;7.63;3.30;;;;;;;;;;5040784;28;20163;-79
2024/03/19 13:29:47;;;;;;;5.90;3.15;;;;;;;;;;5041327;28;20041;-76
2024/03/19 13:32:14;;;;;;;7.55;3.08;;;;;;;;;;5044120;28;20033;-78
2024/03/19 13:34:40;;;;;;;5.82;3.25;;;;;;;;;;5043611;28;20037;-86
2024/03/19 13:37:07;;;;;;;6.35;2.90;;;;;;;;;;5044532;28;20036;-83
2024/03/19 13:39:33;;;;;;;7.97;4.03;;;;;;;;;;5042921;28;20402;-80
2024/03/19 13:41:59;;;;;;;9.48;4.30;;;;;;;;;;5043938;28;20033;-86
2024/03/19 13:44:26;;;;;;;9.77;5.40;;;;;;;;;;5044371;28;20043;-81
2024/03/19 13:46:52;;;;;;;10.80;7.05;;;;;;;;;;5041590;28;20147;-93
2024/03/19 13:49:26;;;;;;;12.90;8.30;;;;;;;;;;5051335;28;20045;-92
2024/03/19 13:51:53;;;;;;;12.40;8.15;;;;;;;;;;5046387;28;20822;-93
2024/03/19 13:54:20;;;;;;;12.40;9.52;;;;;;;;;;5051997;28;20037;-84
2024/03/19 13:56:47;;;;;;;13.52;9.85;;;;;;;;;;5044841;28;20039;-86
2024/03/19 13:59:14;;;;;;;14.43;10.10;;;;;;;;;;5038885;28;20045;-89
2024/03/19 14:01:42;;;;;;;13.55;9.63;;;;;;;;;;5031129;28;20039;-87
2024/03/19 14:04:09;;;;;;;12.25;9.13;;;;;;;;;;5041025;28;20037;-88
2024/03/19 14:06:38;;;;;;;12.07;9.02;;;;;;;;;;5041109;28;20071;-87
2024/03/19 14:09:05;;;;;;;11.65;8.73;;;;;;;;;;5045413;28;20036;-88
2024/03/19 14:11:35;;;;;;;11.48;8.80;;;;;;;;;;5048885;28;20542;-88
2024/03/19 14:14:01;;;;;;;11.00;8.30;;;;;;;;;;5044678;28;20033;-90
2024/03/19 14:16:28;;;;;;;12.43;8.52;;;;;;;;;;5045559;28;20083;-91
2024/03/19 14:18:57;;;;;;;10.60;7.75;;;;;;;;;;5044677;28;20051;-82
2024/03/19 14:21:24;;;;;;;12.82;7.85;;;;;;;;;;5042744;28;20032;-83
2024/03/19 14:23:50;;;;;;;10.40;7.72;;;;;;;;;;5042176;28;20067;-84
2024/03/19 14:26:17;;;;;;;10.15;6.97;;;;;;;;;;5047250;28;20033;-90
2024/03/19 14:28:43;;;;;;;11.95;6.90;;;;;;;;;;5048904;28;20037;-81
2024/03/19 14:31:09;;;;;;;11.75;5.93;;;;;;;;;;5030269;28;20192;-83
2024/03/19 14:33:36;;;;;;;7.72;6.20;;;;;;;;;;5045596;28;20032;-87
2024/03/19 14:36:03;;;;;;;10.85;6.65;;;;;;;;;;5031814;28;20043;-89
2024/03/19 14:38:29;;;;;;;8.98;6.00;;;;;;;;;;5046165;28;20060;-79